Time;durP1;ratioP1;P1;durP2;ratioP2;P2;SDS_P1;SDS_P2;PMS_P1;PMS_P2;Temp;Humidity;BMP_temperature;BMP_pressure;BME280_temperature;BME280_humidity;BME280_pressure;Samples;Min_cycle;Max_cycle;Signal;HPM_P1;HPM_P2
2023/06/16 00:01:53;;;;;;;6.22;3.83;;;20.10;49.40;;;;;;4970083;28;20098;-77
2023/06/16 00:04:21;;;;;;;6.47;3.60;;;20.10;49.90;;;;;;4970489;28;20056;-77
2023/06/16 00:06:49;;;;;;;6.43;3.72;;;20.00;50.00;;;;;;4954421;28;20532;-77
2023/06/16 00:09:16;;;;;;;7.30;3.85;;;20.00;49.80;;;;;;4984476;28;20061;-77
2023/06/16 00:11:43;;;;;;;6.25;3.55;;;20.00;49.70;;;;;;4970273;28;20059;-77
2023/06/16 00:14:12;;;;;;;6.32;3.53;;;19.90;49.70;;;;;;4969953;28;20055;-77
2023/06/16 00:16:39;;;;;;;7.53;3.20;;;19.90;50.00;;;;;;4970158;28;20063;-77
2023/06/16 00:19:06;;;;;;;8.43;3.60;;;19.80;50.00;;;;;;4985594;28;20051;-77
2023/06/16 00:21:37;;;;;;;6.47;3.63;;;19.80;50.00;;;;;;4970789;28;20142;-77
2023/06/16 00:24:06;;;;;;;6.55;3.42;;;19.70;50.10;;;;;;4971888;28;20051;-77
2023/06/16 00:27:23;;;;;;;5.93;3.42;;;19.70;50.20;;;;;;4953959;28;20039;-77
2023/06/16 00:29:51;;;;;;;7.50;3.47;;;19.60;49.70;;;;;;4954011;28;20066;-77
2023/06/16 00:32:19;;;;;;;5.18;3.10;;;19.50;50.50;;;;;;4969734;28;20502;-77
2023/06/16 00:34:47;;;;;;;6.95;3.08;;;19.50;50.40;;;;;;4953477;28;20054;-77
2023/06/16 00:37:14;;;;;;;6.18;3.40;;;19.50;50.50;;;;;;4971535;28;20082;-77
2023/06/16 00:39:41;;;;;;;5.40;3.33;;;19.50;50.50;;;;;;4989133;28;20051;-77
2023/06/16 00:42:09;;;;;;;5.27;3.37;;;19.40;51.00;;;;;;4953952;28;20260;-77
2023/06/16 00:44:36;;;;;;;5.45;2.90;;;19.40;51.60;;;;;;4981240;28;20051;-77
2023/06/16 00:47:05;;;;;;;5.20;3.28;;;19.30;51.70;;;;;;4955181;28;20057;-77
2023/06/16 00:49:32;;;;;;;6.97;3.30;;;19.30;51.80;;;;;;4969769;28;20078;-77
2023/06/16 00:51:59;;;;;;;6.70;3.55;;;19.30;51.70;;;;;;4953055;28;20502;-77
2023/06/16 00:54:27;;;;;;;6.27;3.40;;;19.20;51.70;;;;;;4969166;28;20106;-77
2023/06/16 00:56:55;;;;;;;6.55;3.00;;;19.20;51.60;;;;;;4953402;28;20059;-77
2023/06/16 00:59:26;;;;;;;6.25;3.38;;;19.10;51.90;;;;;;4968866;28;20509;-77
2023/06/16 01:01:54;;;;;;;7.00;3.42;;;19.10;52.30;;;;;;4952444;28;20047;-77
2023/06/16 01:04:23;;;;;;;6.80;3.20;;;19.00;52.60;;;;;;4968833;28;20043;-77
2023/06/16 01:06:57;;;;;;;5.73;3.13;;;19.00;52.90;;;;;;4968867;28;20634;-77
2023/06/16 01:09:30;;;;;;;6.03;3.30;;;19.00;52.70;;;;;;4952899;28;20130;-77
2023/06/16 01:12:07;;;;;;;5.78;3.03;;;18.90;52.60;;;;;;4974857;28;20055;-77
2023/06/16 01:14:47;;;;;;;5.50;3.25;;;18.90;52.60;;;;;;4988250;28;20039;-76
2023/06/16 01:17:16;;;;;;;6.32;3.53;;;18.80;53.00;;;;;;4960998;28;20051;-77
2023/06/16 01:19:50;;;;;;;6.20;3.40;;;18.80;53.70;;;;;;4959120;28;20077;-77
2023/06/16 01:22:32;;;;;;;6.43;3.30;;;18.80;54.10;;;;;;4976969;28;20051;-77
2023/06/16 01:25:04;;;;;;;6.25;3.40;;;18.70;54.10;;;;;;4949468;28;20063;-77
2023/06/16 01:27:33;;;;;;;6.13;3.22;;;18.60;54.20;;;;;;4961885;28;20057;-77
2023/06/16 01:30:02;;;;;;;5.85;3.40;;;18.60;54.00;;;;;;4967679;28;20051;-77
2023/06/16 01:32:30;;;;;;;6.17;3.10;;;18.60;54.00;;;;;;4968885;28;20047;-77
2023/06/16 01:34:58;;;;;;;8.25;3.40;;;18.60;54.30;;;;;;4965218;28;20043;-77
2023/06/16 01:37:26;;;;;;;7.68;3.38;;;18.50;54.80;;;;;;4962381;28;20500;-77
2023/06/16 01:39:54;;;;;;;6.30;3.70;;;18.50;55.10;;;;;;4968228;28;20051;-77
2023/06/16 01:42:23;;;;;;;6.07;3.80;;;18.50;55.40;;;;;;4967944;28;20082;-77
2023/06/16 01:44:51;;;;;;;6.80;3.63;;;18.50;55.70;;;;;;4969588;28;20081;-77
2023/06/16 01:47:18;;;;;;;5.70;3.10;;;18.40;55.60;;;;;;4951780;28;20138;-77
2023/06/16 01:49:45;;;;;;;5.70;3.78;;;18.40;55.70;;;;;;4968274;28;20056;-76
2023/06/16 01:52:12;;;;;;;8.80;4.00;;;18.40;55.80;;;;;;4951787;28;20502;-77
2023/06/16 01:54:39;;;;;;;7.00;3.38;;;18.30;55.70;;;;;;4952152;28;20076;-78
2023/06/16 01:57:06;;;;;;;7.77;3.87;;;18.30;55.70;;;;;;4953749;28;20047;-77
2023/06/16 01:59:35;;;;;;;5.63;3.40;;;18.30;55.80;;;;;;4968643;28;20051;-77
2023/06/16 02:02:06;;;;;;;6.88;3.75;;;18.30;55.90;;;;;;4967514;28;20150;-77
2023/06/16 02:04:39;;;;;;;6.22;3.40;;;18.20;56.00;;;;;;4967528;28;20044;-77
2023/06/16 02:07:10;;;;;;;6.28;3.83;;;18.20;56.20;;;;;;4954844;28;20048;-77
2023/06/16 02:09:39;;;;;;;6.17;3.80;;;18.20;56.30;;;;;;4951933;28;20635;-78
2023/06/16 02:12:11;;;;;;;6.93;4.13;;;18.20;56.30;;;;;;4951231;28;20082;-77
2023/06/16 02:14:39;;;;;;;7.40;4.28;;;18.10;56.40;;;;;;4974154;28;20050;-77
2023/06/16 02:17:09;;;;;;;7.82;3.92;;;18.10;56.50;;;;;;4972072;28;20055;-77
2023/06/16 02:19:38;;;;;;;6.43;3.90;;;18.10;56.60;;;;;;4968050;28;20051;-77
2023/06/16 02:22:05;;;;;;;6.40;4.00;;;18.10;56.40;;;;;;4983986;28;20062;-77
2023/06/16 02:24:32;;;;;;;6.88;4.00;;;18.00;56.70;;;;;;4975518;28;20125;-77
2023/06/16 02:26:59;;;;;;;6.00;3.75;;;18.00;56.60;;;;;;4970781;28;20050;-77
2023/06/16 02:29:26;;;;;;;6.38;3.92;;;18.00;56.90;;;;;;4968312;28;20052;-77
2023/06/16 02:31:54;;;;;;;7.25;4.30;;;18.00;57.20;;;;;;4951188;28;20138;-77
2023/06/16 02:34:21;;;;;;;7.47;4.47;;;18.00;57.90;;;;;;4967457;28;20060;-77
2023/06/16 02:36:50;;;;;;;8.70;4.50;;;18.00;58.40;;;;;;4967853;28;20062;-77
2023/06/16 02:39:18;;;;;;;7.40;4.72;;;18.00;58.50;;;;;;4951545;28;20047;-77
2023/06/16 02:41:46;;;;;;;8.93;4.35;;;18.00;58.90;;;;;;4966619;28;20087;-77
2023/06/16 02:44:13;;;;;;;6.95;4.15;;;17.90;59.00;;;;;;4986448;28;20492;-77
2023/06/16 02:46:40;;;;;;;9.07;4.80;;;17.90;59.40;;;;;;4970224;28;20728;-77
2023/06/16 02:49:09;;;;;;;7.07;4.93;;;17.90;59.40;;;;;;4967346;28;20151;-77
2023/06/16 02:51:36;;;;;;;6.90;4.80;;;17.80;59.70;;;;;;4958010;28;20334;-77
2023/06/16 02:54:04;;;;;;;7.38;4.80;;;17.80;60.00;;;;;;4949273;28;20054;-77
2023/06/16 02:56:31;;;;;;;7.05;4.78;;;17.80;60.20;;;;;;4966392;28;20521;-77
2023/06/16 02:58:59;;;;;;;8.53;4.73;;;17.80;59.70;;;;;;4947614;28;20047;-77
2023/06/16 03:01:29;;;;;;;8.68;5.15;;;17.80;59.90;;;;;;4960201;28;20055;-77
2023/06/16 03:04:10;;;;;;;8.55;5.00;;;17.70;59.50;;;;;;4950885;28;20049;-77
2023/06/16 03:06:57;;;;;;;7.68;5.50;;;17.70;60.20;;;;;;4950348;28;20052;-77
2023/06/16 03:09:30;;;;;;;7.75;5.13;;;17.60;60.40;;;;;;4966605;28;20106;-77
2023/06/16 03:12:00;;;;;;;7.43;5.13;;;17.60;60.30;;;;;;4950190;28;20561;-77
2023/06/16 03:14:29;;;;;;;8.32;5.88;;;17.60;60.80;;;;;;4953212;28;20514;-77
2023/06/16 03:17:06;;;;;;;9.00;5.78;;;17.60;61.10;;;;;;4970268;28;20074;-77
2023/06/16 03:19:35;;;;;;;10.23;6.82;;;17.60;61.70;;;;;;4971317;28;20053;-77
2023/06/16 03:22:02;;;;;;;10.05;6.78;;;17.50;61.50;;;;;;4973737;28;20057;-78
2023/06/16 03:24:41;;;;;;;11.40;6.70;;;17.50;61.50;;;;;;4953917;28;20485;-77
2023/06/16 03:27:11;;;;;;;9.45;7.35;;;17.50;61.80;;;;;;4972692;28;20058;-77
2023/06/16 03:30:11;;;;;;;11.45;7.63;;;17.40;62.00;;;;;;4971028;28;20460;-77
2023/06/16 03:32:55;;;;;;;8.70;6.45;;;17.30;61.70;;;;;;4970371;28;20051;-77
2023/06/16 03:35:23;;;;;;;10.00;7.35;;;17.30;61.80;;;;;;4950798;28;20052;-78
2023/06/16 03:37:52;;;;;;;10.87;7.27;;;17.20;61.60;;;;;;4958082;28;20047;-77
2023/06/16 03:40:21;;;;;;;10.25;7.90;;;17.20;62.20;;;;;;4953971;28;20078;-77
2023/06/16 03:42:48;;;;;;;9.52;6.78;;;17.20;61.80;;;;;;4953653;28;20043;-77
2023/06/16 03:45:15;;;;;;;12.10;7.55;;;17.20;62.50;;;;;;4953829;28;20446;-77
2023/06/16 03:47:42;;;;;;;12.40;7.65;;;17.10;62.50;;;;;;4970207;28;20134;-77
2023/06/16 03:50:10;;;;;;;9.70;6.70;;;17.00;62.80;;;;;;4953527;28;20556;-77
2023/06/16 03:52:42;;;;;;;9.27;6.97;;;17.00;63.10;;;;;;4953554;28;20589;-77
2023/06/16 03:55:11;;;;;;;10.50;7.00;;;17.00;63.40;;;;;;4969202;28;20055;-77
2023/06/16 03:57:38;;;;;;;10.70;7.38;;;16.90;63.30;;;;;;4953758;28;20051;-77
2023/06/16 04:00:09;;;;;;;10.68;6.80;;;16.90;63.90;;;;;;4969820;28;20062;-77
2023/06/16 04:02:48;;;;;;;11.97;7.10;;;16.80;64.30;;;;;;4953340;28;20051;-77
2023/06/16 04:05:23;;;;;;;9.18;6.80;;;16.80;63.90;;;;;;4969512;28;20091;-77
2023/06/16 04:07:54;;;;;;;11.90;7.72;;;16.80;63.70;;;;;;4953324;28;20414;-77
2023/06/16 04:10:22;;;;;;;11.10;7.45;;;16.80;64.00;;;;;;4953609;28;20150;-77
2023/06/16 04:12:49;;;;;;;10.68;7.63;;;16.70;64.20;;;;;;4969295;28;20055;-78
2023/06/16 04:15:17;;;;;;;11.17;7.53;;;16.70;64.40;;;;;;4953282;28;20349;-77
2023/06/16 04:17:44;;;;;;;11.52;8.40;;;16.70;64.40;;;;;;4953240;28;20061;-77
2023/06/16 04:20:12;;;;;;;12.95;8.82;;;16.70;64.80;;;;;;4969145;28;20338;-77
2023/06/16 04:22:40;;;;;;;11.82;8.05;;;16.60;65.10;;;;;;4969600;28;20059;-77
2023/06/16 04:25:10;;;;;;;11.40;8.23;;;16.50;65.10;;;;;;4952748;28;20047;-77
2023/06/16 04:27:39;;;;;;;11.53;8.17;;;16.50;65.40;;;;;;4953632;28;20393;-77
2023/06/16 04:30:07;;;;;;;12.00;8.30;;;16.40;65.40;;;;;;4969429;28;20054;-77
2023/06/16 04:32:36;;;;;;;10.75;8.25;;;16.40;65.60;;;;;;4968562;28;20576;-77
2023/06/16 04:35:06;;;;;;;12.07;8.60;;;16.40;65.70;;;;;;4969253;28;20139;-77
2023/06/16 04:37:34;;;;;;;12.50;8.98;;;16.40;66.00;;;;;;4968965;28;20056;-77
2023/06/16 04:40:04;;;;;;;13.30;9.10;;;16.30;65.90;;;;;;4952949;28;20055;-77
2023/06/16 04:42:33;;;;;;;13.48;9.68;;;16.30;66.10;;;;;;4953128;28;20190;-77
2023/06/16 04:45:00;;;;;;;11.95;8.90;;;16.30;66.20;;;;;;4968629;28;20134;-78
2023/06/16 04:47:27;;;;;;;12.50;9.15;;;16.20;66.20;;;;;;4969341;28;20052;-77
2023/06/16 04:49:54;;;;;;;14.52;9.77;;;16.20;66.40;;;;;;4955470;28;20062;-77
2023/06/16 04:52:21;;;;;;;14.63;10.10;;;16.20;66.50;;;;;;4933607;28;20055;-77
2023/06/16 04:54:48;;;;;;;13.48;10.00;;;16.20;66.80;;;;;;4945529;28;20134;-75
2023/06/16 04:57:15;;;;;;;13.85;10.10;;;16.20;67.10;;;;;;4947882;28;20062;-76
2023/06/16 04:59:44;;;;;;;15.00;10.10;;;16.10;67.90;;;;;;4967147;28;20093;-76
2023/06/16 05:02:10;;;;;;;12.43;9.38;;;16.10;67.70;;;;;;4965478;28;20089;-76
2023/06/16 05:04:42;;;;;;;15.33;9.83;;;16.10;67.50;;;;;;4964037;28;20051;-75
2023/06/16 05:07:10;;;;;;;13.00;9.45;;;16.10;68.20;;;;;;4965312;28;20095;-75
2023/06/16 05:09:38;;;;;;;12.95;8.65;;;16.10;68.00;;;;;;4949332;28;20502;-76
2023/06/16 05:12:06;;;;;;;12.60;9.48;;;16.10;68.10;;;;;;4950455;28;20508;-76
2023/06/16 05:14:34;;;;;;;13.73;9.10;;;16.10;68.40;;;;;;4966292;28;20057;-76
2023/06/16 05:17:03;;;;;;;16.03;9.80;;;16.10;68.50;;;;;;4948166;28;20058;-76
2023/06/16 05:19:30;;;;;;;14.82;10.05;;;16.20;68.50;;;;;;4966086;28;20047;-76
2023/06/16 05:21:59;;;;;;;13.70;9.75;;;16.20;68.30;;;;;;4967903;28;20055;-76
2023/06/16 05:24:26;;;;;;;14.68;10.60;;;16.20;68.30;;;;;;4951701;28;20055;-76
2023/06/16 05:26:54;;;;;;;12.85;9.43;;;16.20;67.90;;;;;;4949905;28;20138;-76
2023/06/16 05:29:22;;;;;;;13.17;9.57;;;16.30;67.70;;;;;;4967199;28;20055;-76
2023/06/16 05:31:50;;;;;;;14.43;10.82;;;16.40;68.10;;;;;;4966636;28;20110;-76
2023/06/16 05:34:19;;;;;;;14.57;10.25;;;16.40;68.40;;;;;;4966695;28;20051;-76
2023/06/16 05:36:46;;;;;;;13.63;9.57;;;16.40;68.70;;;;;;4949975;28;20531;-76
2023/06/16 05:39:17;;;;;;;14.82;10.07;;;16.40;68.20;;;;;;4950373;28;20059;-76
2023/06/16 05:41:45;;;;;;;16.70;11.37;;;16.50;68.00;;;;;;4949546;28;20061;-76
2023/06/16 05:44:14;;;;;;;15.02;11.68;;;16.50;68.50;;;;;;4947828;28;20055;-76
2023/06/16 05:46:43;;;;;;;15.70;11.30;;;16.60;69.30;;;;;;4964645;28;20102;-76
2023/06/16 05:49:11;;;;;;;15.95;11.52;;;16.60;69.60;;;;;;4962372;28;20462;-76
2023/06/16 05:51:40;;;;;;;18.85;13.07;;;16.60;69.00;;;;;;4949696;28;20126;-76
2023/06/16 05:54:07;;;;;;;17.80;12.63;;;16.70;69.10;;;;;;4966133;28;20051;-76
2023/06/16 05:56:35;;;;;;;19.42;12.98;;;16.70;69.60;;;;;;4948819;28;20557;-76
2023/06/16 05:59:02;;;;;;;17.77;12.25;;;16.70;69.40;;;;;;4946794;28;20106;-76
2023/06/16 06:01:30;;;;;;;16.98;10.77;;;16.80;69.50;;;;;;4964089;28;20055;-76
2023/06/16 06:03:57;;;;;;;16.88;11.02;;;16.80;69.50;;;;;;4951204;28;20050;-76
2023/06/16 06:06:25;;;;;;;12.77;9.30;;;16.90;69.30;;;;;;4963833;28;20489;-76
2023/06/16 06:08:54;;;;;;;15.40;10.63;;;16.90;69.00;;;;;;4967799;28;20051;-75
2023/06/16 06:11:23;;;;;;;20.10;13.65;;;17.00;69.00;;;;;;4940525;28;20520;-74
2023/06/16 06:13:51;;;;;;;14.57;9.90;;;17.00;69.50;;;;;;4946238;28;20044;-76
2023/06/16 06:16:18;;;;;;;16.77;12.70;;;17.00;69.00;;;;;;4950569;28;20522;-76
2023/06/16 06:18:47;;;;;;;15.43;10.30;;;17.10;69.40;;;;;;4945990;28;20968;-76
2023/06/16 06:21:14;;;;;;;17.00;11.70;;;17.20;69.20;;;;;;4968438;28;20057;-76
2023/06/16 06:23:42;;;;;;;18.38;13.02;;;17.20;69.60;;;;;;4964789;28;20055;-75
2023/06/16 06:26:10;;;;;;;19.30;13.38;;;17.30;70.10;;;;;;4966303;28;20059;-76
2023/06/16 06:28:37;;;;;;;16.75;11.85;;;17.40;70.00;;;;;;4949471;28;20047;-76
2023/06/16 06:31:07;;;;;;;18.37;11.33;;;17.50;70.10;;;;;;4946853;28;20142;-76
2023/06/16 06:33:34;;;;;;;16.63;11.75;;;17.50;69.90;;;;;;4950983;28;20134;-76
2023/06/16 06:36:02;;;;;;;16.65;12.35;;;17.50;69.70;;;;;;4950872;28;20587;-75
2023/06/16 06:38:31;;;;;;;16.90;11.77;;;17.60;69.30;;;;;;4949369;28;20144;-76
2023/06/16 06:41:00;;;;;;;14.90;9.52;;;17.60;69.60;;;;;;4948664;28;20051;-76
2023/06/16 06:43:29;;;;;;;17.03;11.83;;;17.60;69.20;;;;;;4966834;28;20170;-77
2023/06/16 06:46:06;;;;;;;17.42;11.65;;;17.70;68.90;;;;;;4945868;28;20043;-76
2023/06/16 06:48:41;;;;;;;17.63;10.27;;;17.80;69.00;;;;;;4952099;28;20051;-79
2023/06/16 06:51:09;;;;;;;18.25;11.32;;;17.80;68.70;;;;;;4951077;28;20154;-79
2023/06/16 06:53:36;;;;;;;13.80;9.50;;;17.80;68.40;;;;;;4970985;28;20055;-78
2023/06/16 06:56:04;;;;;;;11.20;8.60;;;17.90;67.80;;;;;;4970674;28;20055;-78
2023/06/16 06:58:33;;;;;;;12.88;8.50;;;18.00;66.70;;;;;;4967734;28;20154;-78
2023/06/16 07:01:00;;;;;;;11.93;8.38;;;18.00;66.20;;;;;;4969176;28;20050;-80
2023/06/16 07:03:28;;;;;;;10.80;7.72;;;18.00;66.10;;;;;;4969440;28;20150;-79
2023/06/16 07:05:55;;;;;;;10.02;6.68;;;18.10;65.90;;;;;;4970369;28;20052;-78
2023/06/16 07:08:22;;;;;;;9.93;6.90;;;18.10;65.60;;;;;;4962815;28;20139;-77
2023/06/16 07:10:49;;;;;;;10.40;6.88;;;18.10;65.40;;;;;;4969520;28;20054;-79
2023/06/16 07:13:16;;;;;;;11.02;7.65;;;18.20;65.20;;;;;;4968403;28;20063;-77
2023/06/16 07:15:45;;;;;;;9.68;6.45;;;18.20;64.80;;;;;;4969836;28;20055;-76
2023/06/16 07:18:12;;;;;;;10.85;7.55;;;18.30;64.20;;;;;;4970804;28;20055;-77
2023/06/16 07:20:39;;;;;;;12.43;8.10;;;18.30;64.10;;;;;;4966994;28;20062;-76
2023/06/16 07:23:06;;;;;;;14.15;8.20;;;18.40;64.10;;;;;;4969996;28;20075;-77
2023/06/16 07:25:36;;;;;;;12.80;7.72;;;18.40;64.10;;;;;;4949784;28;20052;-77
2023/06/16 07:28:04;;;;;;;12.13;7.25;;;18.50;63.80;;;;;;4950570;28;20055;-77
2023/06/16 07:30:31;;;;;;;14.23;9.25;;;18.60;64.30;;;;;;4979427;28;20103;-77
2023/06/16 07:33:00;;;;;;;11.10;8.03;;;18.70;64.30;;;;;;4967769;28;20527;-77
2023/06/16 07:35:27;;;;;;;11.55;8.35;;;18.70;64.30;;;;;;4966925;28;20075;-79
2023/06/16 07:37:54;;;;;;;13.15;8.52;;;18.80;64.50;;;;;;4950764;28;20073;-79
2023/06/16 07:40:22;;;;;;;10.55;7.47;;;18.90;64.60;;;;;;4967168;28;20055;-78
2023/06/16 07:42:49;;;;;;;12.35;8.15;;;18.90;64.40;;;;;;4967206;28;20811;-78
2023/06/16 07:45:17;;;;;;;10.20;7.53;;;19.00;64.20;;;;;;4966838;28;20484;-79
2023/06/16 07:47:46;;;;;;;11.70;7.93;;;19.00;63.70;;;;;;4971213;28;20064;-81
2023/06/16 07:50:15;;;;;;;9.93;7.70;;;19.10;63.90;;;;;;4971886;28;20059;-81
2023/06/16 07:52:42;;;;;;;11.32;8.25;;;19.20;63.90;;;;;;4953922;28;20130;-79
2023/06/16 07:55:10;;;;;;;11.70;8.52;;;19.20;63.90;;;;;;4970516;28;21117;-78
2023/06/16 07:57:39;;;;;;;10.53;7.10;;;19.30;63.20;;;;;;4969172;28;21222;-79
2023/06/16 08:00:11;;;;;;;12.25;7.10;;;19.30;62.70;;;;;;4968898;28;20051;-79
2023/06/16 08:02:40;;;;;;;10.93;7.38;;;19.40;62.70;;;;;;4966377;28;20603;-78
2023/06/16 08:05:08;;;;;;;10.10;7.40;;;19.50;62.60;;;;;;4968853;28;20050;-79
2023/06/16 08:07:37;;;;;;;8.45;6.68;;;19.50;62.80;;;;;;4968222;28;20059;-78
2023/06/16 08:10:05;;;;;;;10.53;6.83;;;19.60;62.30;;;;;;4970370;28;20497;-80
2023/06/16 08:12:32;;;;;;;9.38;6.78;;;19.70;62.30;;;;;;4954944;28;20050;-79
2023/06/16 08:14:59;;;;;;;10.38;7.63;;;19.70;62.00;;;;;;4971158;28;20528;-79
2023/06/16 08:17:26;;;;;;;10.13;6.40;;;19.70;61.80;;;;;;4967196;28;20047;-78
2023/06/16 08:19:53;;;;;;;10.35;6.85;;;19.80;61.50;;;;;;4968426;28;20035;-80
2023/06/16 08:22:20;;;;;;;10.53;7.00;;;19.90;61.50;;;;;;4962667;28;20051;-77
2023/06/16 08:24:48;;;;;;;9.45;7.15;;;20.00;61.50;;;;;;4969678;28;20059;-78
2023/06/16 08:27:15;;;;;;;10.02;7.10;;;20.00;61.80;;;;;;4967491;28;20439;-78
2023/06/16 08:29:43;;;;;;;10.48;6.05;;;20.10;61.70;;;;;;4957585;28;20493;-78
2023/06/16 08:32:10;;;;;;;9.90;6.80;;;20.10;61.90;;;;;;4948386;28;20062;-78
2023/06/16 08:34:37;;;;;;;10.00;7.30;;;20.20;61.60;;;;;;4966750;28;20520;-76
2023/06/16 08:37:05;;;;;;;11.27;6.50;;;20.30;60.40;;;;;;4980105;28;20051;-78
2023/06/16 08:39:32;;;;;;;9.88;6.85;;;20.30;60.50;;;;;;4976742;28;20055;-77
2023/06/16 08:42:00;;;;;;;8.85;6.25;;;20.30;60.20;;;;;;4964962;28;20051;-77
2023/06/16 08:44:29;;;;;;;8.63;7.15;;;20.40;60.30;;;;;;4967400;28;20048;-78
2023/06/16 08:46:57;;;;;;;9.50;6.27;;;20.50;60.00;;;;;;4968082;28;20055;-79
2023/06/16 08:49:25;;;;;;;9.32;6.93;;;20.50;60.20;;;;;;4982819;28;20083;-78
2023/06/16 08:52:18;;;;;;;10.35;7.60;;;20.50;60.80;;;;;;4951468;28;20208;-78
2023/06/16 08:54:48;;;;;;;8.45;7.00;;;20.60;59.70;;;;;;4969080;28;20525;-79
2023/06/16 08:57:19;;;;;;;7.28;5.60;;;20.70;59.80;;;;;;4963796;28;20052;-80
2023/06/16 08:59:50;;;;;;;9.30;6.73;;;20.80;60.10;;;;;;4964593;28;20051;-78
2023/06/16 09:02:17;;;;;;;9.57;6.57;;;20.80;60.30;;;;;;4966972;28;20142;-79
2023/06/16 09:04:44;;;;;;;8.65;5.60;;;20.90;60.20;;;;;;4964614;28;20055;-78
2023/06/16 09:07:16;;;;;;;7.40;5.63;;;20.90;59.70;;;;;;4965456;28;20051;-77
2023/06/16 09:09:43;;;;;;;8.43;6.38;;;20.90;59.60;;;;;;4971011;28;20055;-77
2023/06/16 09:12:11;;;;;;;8.93;6.03;;;21.00;59.30;;;;;;4965871;28;20064;-78
2023/06/16 09:14:41;;;;;;;8.15;5.30;;;21.10;59.00;;;;;;4964576;28;20186;-77
2023/06/16 09:17:09;;;;;;;10.45;5.45;;;21.10;59.10;;;;;;4965679;28;20054;-77
2023/06/16 09:19:46;;;;;;;8.98;6.22;;;21.10;59.10;;;;;;4967296;28;20062;-78
2023/06/16 09:22:16;;;;;;;8.35;5.97;;;21.10;59.10;;;;;;4965961;28;20051;-79
2023/06/16 09:24:43;;;;;;;8.60;6.17;;;21.20;58.00;;;;;;4947477;28;20439;-77
2023/06/16 09:27:12;;;;;;;7.93;5.40;;;21.30;58.40;;;;;;4948538;28;20562;-77
2023/06/16 09:29:41;;;;;;;7.50;5.60;;;21.40;58.60;;;;;;4946257;28;20651;-78
2023/06/16 09:32:10;;;;;;;6.38;4.95;;;21.40;58.70;;;;;;4965226;28;20493;-79
2023/06/16 09:34:37;;;;;;;8.35;5.85;;;21.50;58.90;;;;;;4965680;28;20593;-79
2023/06/16 09:37:06;;;;;;;8.90;5.90;;;21.50;58.70;;;;;;4966721;28;20051;-77
2023/06/16 09:39:33;;;;;;;7.82;5.45;;;21.60;58.70;;;;;;4967993;28;20056;-77
2023/06/16 09:42:02;;;;;;;9.48;5.88;;;21.70;58.30;;;;;;4968427;28;20110;-78
2023/06/16 09:44:31;;;;;;;10.73;5.63;;;21.70;57.70;;;;;;4966289;28;20050;-78
2023/06/16 09:47:02;;;;;;;8.90;5.82;;;21.80;56.60;;;;;;4965696;28;20513;-78
2023/06/16 09:49:29;;;;;;;10.07;5.50;;;21.90;56.70;;;;;;4966167;28;20061;-78
2023/06/16 09:51:57;;;;;;;7.38;5.20;;;21.90;57.00;;;;;;4968239;28;20059;-77
2023/06/16 09:54:25;;;;;;;7.53;4.78;;;22.00;56.50;;;;;;4964843;28;20050;-77
2023/06/16 09:56:55;;;;;;;8.35;5.30;;;22.00;56.50;;;;;;4966592;28;20047;-76
2023/06/16 09:59:23;;;;;;;6.80;5.35;;;22.10;56.60;;;;;;4961829;28;20482;-77
2023/06/16 10:01:53;;;;;;;8.37;5.20;;;22.10;56.30;;;;;;4962759;28;20142;-78
2023/06/16 10:04:22;;;;;;;8.02;5.53;;;22.20;56.50;;;;;;4965884;28;20050;-77
2023/06/16 10:06:54;;;;;;;7.32;5.28;;;22.30;56.50;;;;;;4966152;28;20063;-77
2023/06/16 10:09:27;;;;;;;7.82;5.43;;;22.30;56.30;;;;;;4966710;28;20051;-77
2023/06/16 10:11:56;;;;;;;9.85;5.32;;;22.40;55.60;;;;;;4966040;28;20563;-78
2023/06/16 10:14:27;;;;;;;6.70;4.77;;;22.50;55.70;;;;;;4965644;28;20501;-78
2023/06/16 10:16:56;;;;;;;7.03;4.50;;;22.50;55.30;;;;;;4945864;28;20062;-78
2023/06/16 10:19:26;;;;;;;6.47;4.50;;;22.60;55.00;;;;;;4944812;28;20160;-79
2023/06/16 10:21:53;;;;;;;5.60;3.75;;;22.60;51.90;;;;;;4962861;28;20082;-78
2023/06/16 10:24:21;;;;;;;7.57;4.70;;;22.70;52.10;;;;;;4964741;28;20089;-79
2023/06/16 10:26:50;;;;;;;6.00;3.90;;;22.70;52.10;;;;;;4967034;28;20063;-82
2023/06/16 10:29:20;;;;;;;9.15;4.10;;;22.80;52.20;;;;;;4964592;28;20074;-76
2023/06/16 10:31:49;;;;;;;6.47;3.78;;;22.80;52.00;;;;;;4950598;28;20047;-77
2023/06/16 10:34:21;;;;;;;6.65;4.00;;;22.90;52.50;;;;;;4966304;28;20107;-79
2023/06/16 10:36:52;;;;;;;6.00;3.85;;;22.90;51.40;;;;;;4966459;28;20084;-78
2023/06/16 10:39:19;;;;;;;6.10;4.10;;;23.00;50.30;;;;;;4964494;28;20071;-78
2023/06/16 10:41:51;;;;;;;5.20;3.63;;;23.00;49.60;;;;;;4969837;28;20055;-80
2023/06/16 10:44:24;;;;;;;9.82;4.00;;;23.10;49.00;;;;;;4962477;28;20573;-78
2023/06/16 10:47:29;;;;;;;6.03;3.42;;;23.10;48.80;;;;;;4962862;28;20056;-79
2023/06/16 10:49:58;;;;;;;6.10;3.50;;;23.20;46.60;;;;;;4961820;28;20062;-80
2023/06/16 10:52:35;;;;;;;6.63;2.90;;;23.20;47.20;;;;;;4963906;28;20040;-79
2023/06/16 10:55:18;;;;;;;5.40;3.40;;;23.30;45.50;;;;;;4965718;28;20062;-78
2023/06/16 10:57:46;;;;;;;6.53;3.45;;;23.30;45.40;;;;;;4965198;28;20048;-79
2023/06/16 11:00:16;;;;;;;6.63;3.17;;;23.30;45.40;;;;;;4950036;28;20504;-78
2023/06/16 11:02:51;;;;;;;5.65;3.75;;;23.30;45.20;;;;;;4965132;28;20500;-78
2023/06/16 11:05:21;;;;;;;5.80;2.90;;;23.30;46.50;;;;;;4966321;28;20597;-78
2023/06/16 11:08:14;;;;;;;5.47;3.35;;;23.30;46.40;;;;;;4958914;28;20086;-78
2023/06/16 11:10:51;;;;;;;5.85;3.55;;;23.40;42.20;;;;;;4956843;28;20577;-80
2023/06/16 11:13:19;;;;;;;6.30;3.20;;;23.40;43.60;;;;;;4965499;28;20043;-75
2023/06/16 11:15:46;;;;;;;5.97;3.30;;;23.50;43.20;;;;;;4969662;28;20138;-76
2023/06/16 11:18:13;;;;;;;5.33;3.50;;;23.50;44.30;;;;;;4968964;28;20055;-77
2023/06/16 11:20:41;;;;;;;5.53;3.53;;;23.50;45.20;;;;;;4966855;28;20052;-76
2023/06/16 11:23:10;;;;;;;5.93;3.60;;;23.50;45.10;;;;;;4966064;28;20186;-76
2023/06/16 11:25:38;;;;;;;8.52;3.35;;;23.60;44.70;;;;;;4967369;28;20059;-76
2023/06/16 11:28:05;;;;;;;5.65;3.40;;;23.60;43.20;;;;;;4966188;28;20114;-76
2023/06/16 11:30:36;;;;;;;6.30;3.23;;;23.60;44.50;;;;;;4963019;28;20138;-78
2023/06/16 11:33:03;;;;;;;6.28;3.40;;;23.60;42.80;;;;;;4967731;28;20050;-77
2023/06/16 11:35:31;;;;;;;6.38;3.42;;;23.70;42.90;;;;;;4950788;28;20155;-78
2023/06/16 11:37:58;;;;;;;5.55;3.00;;;23.70;44.00;;;;;;4968920;28;20102;-83
2023/06/16 11:40:28;;;;;;;5.88;3.22;;;23.80;44.40;;;;;;4966211;28;20059;-79
2023/06/16 11:42:56;;;;;;;4.83;2.50;;;23.80;44.20;;;;;;4970149;28;20102;-81
2023/06/16 11:45:24;;;;;;;4.95;3.30;;;23.90;44.30;;;;;;4967838;28;20058;-79
2023/06/16 11:47:51;;;;;;;4.60;2.97;;;23.90;42.10;;;;;;4971471;28;20486;-81
2023/06/16 11:50:18;;;;;;;6.38;3.00;;;24.00;43.20;;;;;;4973332;28;20047;-84
2023/06/16 11:52:46;;;;;;;4.68;3.10;;;24.00;42.20;;;;;;4970217;28;20588;-82
2023/06/16 11:55:13;;;;;;;6.20;3.67;;;24.10;42.90;;;;;;4970247;28;20068;-79
2023/06/16 11:57:41;;;;;;;5.72;3.20;;;24.20;43.50;;;;;;4969480;28;20051;-79
2023/06/16 12:00:11;;;;;;;5.13;3.10;;;24.20;43.50;;;;;;4970686;28;20536;-81
2023/06/16 12:02:40;;;;;;;6.43;3.15;;;24.30;43.50;;;;;;4969877;28;20434;-80
2023/06/16 12:05:11;;;;;;;3.97;2.47;;;24.40;41.90;;;;;;4966670;28;20514;-80
2023/06/16 12:07:38;;;;;;;6.10;3.20;;;24.40;41.90;;;;;;4964257;28;20051;-80
2023/06/16 12:10:07;;;;;;;5.13;3.20;;;24.50;42.80;;;;;;4977856;28;20051;-76
2023/06/16 12:12:34;;;;;;;5.32;2.97;;;24.60;42.80;;;;;;4961272;28;20039;-78
2023/06/16 12:15:03;;;;;;;5.20;3.13;;;24.60;42.60;;;;;;4960329;28;20183;-77
2023/06/16 12:17:33;;;;;;;6.15;3.17;;;24.70;43.10;;;;;;4967148;28;20051;-77
2023/06/16 12:20:03;;;;;;;5.83;3.20;;;24.80;42.20;;;;;;4965061;28;20083;-77
2023/06/16 12:22:35;;;;;;;4.88;3.03;;;24.90;42.10;;;;;;4963778;28;20525;-77
2023/06/16 12:25:02;;;;;;;5.05;3.20;;;25.00;40.60;;;;;;4961221;28;20050;-78
2023/06/16 12:27:33;;;;;;;5.05;2.58;;;25.00;41.00;;;;;;4981109;28;20506;-78
2023/06/16 12:30:02;;;;;;;5.70;2.90;;;25.00;41.30;;;;;;4966291;28;20050;-78
2023/06/16 12:32:32;;;;;;;5.63;3.17;;;25.00;40.90;;;;;;4962234;28;20589;-77
2023/06/16 12:34:59;;;;;;;5.03;2.90;;;25.00;40.20;;;;;;4963448;28;20541;-79
2023/06/16 12:37:28;;;;;;;4.90;2.70;;;25.00;39.50;;;;;;4961213;28;20082;-78
2023/06/16 12:39:59;;;;;;;6.88;3.13;;;25.10;39.50;;;;;;4966909;28;20062;-78
2023/06/16 12:42:29;;;;;;;8.60;3.50;;;25.00;40.90;;;;;;4965141;28;20051;-77
2023/06/16 12:44:59;;;;;;;5.83;2.80;;;25.00;41.10;;;;;;4966719;28;20421;-76
2023/06/16 12:47:27;;;;;;;4.47;2.83;;;25.00;41.50;;;;;;4966459;28;20077;-76
2023/06/16 12:49:58;;;;;;;5.97;2.90;;;25.10;41.60;;;;;;4966838;28;20047;-76
2023/06/16 12:52:27;;;;;;;5.20;2.92;;;25.20;41.50;;;;;;4960091;28;20063;-76